createdAt,value
2023-03-22T00:00:07.120Z,0.30
2023-03-22T00:02:34.601Z,0.40
2023-03-22T00:05:03.431Z,0.30
2023-03-22T00:07:31.446Z,0.32
2023-03-22T00:09:58.854Z,0.30
2023-03-22T00:12:26.278Z,0.35
2023-03-22T00:14:55.029Z,0.35
2023-03-22T00:17:23.189Z,0.35
2023-03-22T00:19:50.643Z,0.30
2023-03-22T00:22:19.457Z,0.40
2023-03-22T00:24:47.091Z,0.40
2023-03-22T00:27:14.540Z,0.38
2023-03-22T00:29:42.535Z,0.30
2023-03-22T00:32:10.356Z,0.32
2023-03-22T00:34:37.856Z,0.40
2023-03-22T00:37:05.360Z,0.40
2023-03-22T00:39:34.117Z,0.30
2023-03-22T00:42:01.674Z,0.30
2023-03-22T00:44:29.118Z,0.30
2023-03-22T00:46:56.663Z,0.30
2023-03-22T00:49:25.477Z,0.38
2023-03-22T00:51:53.017Z,0.40
2023-03-22T00:54:20.531Z,0.30
2023-03-22T00:56:50.748Z,0.30
2023-03-22T00:59:18.393Z,0.32
2023-03-22T01:01:45.950Z,0.40
2023-03-22T01:04:17.850Z,0.30
2023-03-22T01:06:47.004Z,0.50
2023-03-22T01:09:15.107Z,0.30
2023-03-22T01:11:43.002Z,0.40
2023-03-22T01:14:13.674Z,0.50
2023-03-22T01:16:41.298Z,0.30
2023-03-22T01:19:09.275Z,0.40
2023-03-22T01:21:37.083Z,0.40
2023-03-22T01:24:04.881Z,0.40
2023-03-22T01:26:32.316Z,0.40
2023-03-22T01:28:59.826Z,0.40
2023-03-22T01:31:29.572Z,0.40
2023-03-22T01:33:57.054Z,0.32
2023-03-22T01:36:24.575Z,0.30
2023-03-22T01:38:51.981Z,0.40
2023-03-22T01:41:21.178Z,0.30
2023-03-22T01:44:04.699Z,0.30
2023-03-22T01:46:33.953Z,0.40
2023-03-22T01:49:02.399Z,0.40
2023-03-22T01:51:30.009Z,0.28
2023-03-22T01:54:23.105Z,0.30
2023-03-22T01:56:51.244Z,0.30
2023-03-22T01:59:28.413Z,0.30
2023-03-22T02:02:14.850Z,0.40
2023-03-22T02:04:42.409Z,0.40
2023-03-22T02:07:15.477Z,0.32
2023-03-22T02:09:46.480Z,0.30
2023-03-22T02:12:19.078Z,0.30
2023-03-22T02:14:53.408Z,0.40
2023-03-22T02:17:44.176Z,0.40
2023-03-22T02:20:32.732Z,0.30
2023-03-22T02:23:12.173Z,0.35
2023-03-22T02:25:58.317Z,0.30
2023-03-22T02:28:30.141Z,0.30
2023-03-22T02:31:24.894Z,0.30
2023-03-22T02:33:59.242Z,0.50
2023-03-22T02:36:56.947Z,0.30
2023-03-22T02:39:32.738Z,0.30
2023-03-22T02:42:08.021Z,0.40
2023-03-22T02:44:41.239Z,0.50
2023-03-22T02:47:12.313Z,0.40
2023-03-22T02:49:42.247Z,0.40
2023-03-22T02:52:17.138Z,0.30
2023-03-22T02:54:48.526Z,0.30
2023-03-22T02:57:17.841Z,0.30
2023-03-22T02:59:46.618Z,0.40
2023-03-22T03:02:17.261Z,0.35
2023-03-22T03:04:46.875Z,0.40
2023-03-22T03:07:17.624Z,0.40
2023-03-22T03:09:47.099Z,0.38
2023-03-22T03:12:15.897Z,0.30
2023-03-22T03:14:43.398Z,0.30
2023-03-22T03:17:14.006Z,0.40
2023-03-22T03:19:43.761Z,0.40
2023-03-22T03:22:27.353Z,0.32
2023-03-22T03:25:03.289Z,0.30
2023-03-22T03:27:33.324Z,0.40
2023-03-22T03:30:02.930Z,0.35
2023-03-22T03:32:35.208Z,0.30
2023-03-22T03:35:08.517Z,0.47
2023-03-22T03:37:37.932Z,0.35
2023-03-22T03:40:10.766Z,0.30
2023-03-22T03:42:39.023Z,0.30
2023-03-22T03:45:07.688Z,0.40
2023-03-22T03:47:35.773Z,0.30
2023-03-22T03:50:03.674Z,0.30
2023-03-22T03:52:31.482Z,0.30
2023-03-22T03:54:59.067Z,0.32
2023-03-22T03:57:33.347Z,0.38
2023-03-22T04:00:00.874Z,0.30
2023-03-22T04:02:41.174Z,0.40
2023-03-22T04:05:15.079Z,0.40
2023-03-22T04:07:42.771Z,0.40
2023-03-22T04:10:10.576Z,0.40
2023-03-22T04:12:39.456Z,0.30
2023-03-22T04:15:16.251Z,0.30
2023-03-22T04:17:49.576Z,0.30
2023-03-22T04:20:19.496Z,0.40
2023-03-22T04:22:48.412Z,0.40
2023-03-22T04:25:18.037Z,0.40
2023-03-22T04:27:57.305Z,0.35
2023-03-22T04:30:27.335Z,0.30
2023-03-22T04:33:06.788Z,0.40
2023-03-22T04:36:05.477Z,0.40
2023-03-22T04:38:39.975Z,0.50
2023-03-22T04:41:11.124Z,0.30
2023-03-22T04:43:47.035Z,0.30
2023-03-22T04:46:16.486Z,0.30
2023-03-22T04:48:50.488Z,0.40
2023-03-22T04:51:18.760Z,0.30
2023-03-22T04:54:02.189Z,0.32
2023-03-22T04:56:30.182Z,0.35
2023-03-22T04:58:59.113Z,0.30
2023-03-22T05:01:28.430Z,0.30
2023-03-22T05:04:08.457Z,0.30
2023-03-22T05:06:36.239Z,0.30
2023-03-22T05:09:10.425Z,0.40
2023-03-22T05:11:38.156Z,0.40
2023-03-22T05:14:22.562Z,0.30
2023-03-22T05:16:50.496Z,0.40
2023-03-22T05:19:22.318Z,0.30
2023-03-22T05:21:57.820Z,0.32
2023-03-22T05:24:34.048Z,0.40
2023-03-22T05:27:03.761Z,0.40
2023-03-22T05:29:36.677Z,0.40
2023-03-22T05:32:18.274Z,0.40
2023-03-22T05:34:48.322Z,0.40
2023-03-22T05:37:24.390Z,0.40
2023-03-22T05:39:55.206Z,0.40
2023-03-22T05:42:28.965Z,0.40
2023-03-22T05:44:58.462Z,0.40
2023-03-22T05:47:25.894Z,0.30
2023-03-22T05:50:01.583Z,0.30
2023-03-22T05:52:32.087Z,0.20
2023-03-22T05:55:18.391Z,0.20
2023-03-22T05:57:47.474Z,0.20
2023-03-22T06:00:16.990Z,0.10
2023-03-22T06:03:08.127Z,0.10
2023-03-22T06:05:41.326Z,0.10
2023-03-22T06:08:09.782Z,0.10
2023-03-22T06:10:37.337Z,0.10
2023-03-22T06:13:05.056Z,0.10
2023-03-22T06:15:36.062Z,0.10
2023-03-22T06:18:06.454Z,0.17
2023-03-22T06:20:39.580Z,0.10
2023-03-22T06:23:13.718Z,0.10
2023-03-22T06:25:42.661Z,0.10
2023-03-22T06:28:10.377Z,0.10
2023-03-22T06:30:41.473Z,0.10
2023-03-22T06:33:27.742Z,0.10
2023-03-22T06:36:15.290Z,0.10
2023-03-22T06:39:05.152Z,0.10
2023-03-22T06:41:33.711Z,0.00
2023-03-22T06:44:02.498Z,0.00
2023-03-22T06:47:04.104Z,0.00
2023-03-22T06:49:50.380Z,0.00
2023-03-22T06:52:25.174Z,0.10
2023-03-22T06:54:53.163Z,0.00
2023-03-22T06:57:20.734Z,0.10
2023-03-22T06:59:48.229Z,0.00
2023-03-22T07:02:17.033Z,0.00
2023-03-22T07:05:04.597Z,0.00
2023-03-22T07:07:32.056Z,0.10
2023-03-22T07:09:59.468Z,0.00
2023-03-22T07:12:27.109Z,0.00
2023-03-22T07:14:55.573Z,0.00
2023-03-22T07:17:47.429Z,0.00
2023-03-22T07:20:15.736Z,0.00
2023-03-22T07:22:43.241Z,0.00
2023-03-22T07:25:11.109Z,0.00
2023-03-22T07:27:38.880Z,0.00
2023-03-22T07:30:09.352Z,0.00
2023-03-22T07:32:41.173Z,0.00
2023-03-22T07:35:16.663Z,0.00
2023-03-22T07:37:44.459Z,0.00
2023-03-22T07:40:21.527Z,0.00
2023-03-22T07:42:52.638Z,0.00
2023-03-22T07:45:35.655Z,0.00
2023-03-22T07:48:22.970Z,0.00
2023-03-22T07:51:04.303Z,0.00
2023-03-22T07:53:31.817Z,0.00
2023-03-22T07:55:59.254Z,0.00
2023-03-22T07:58:26.687Z,0.00
2023-03-22T08:00:54.404Z,0.00
2023-03-22T08:03:47.747Z,0.00
2023-03-22T08:06:32.682Z,0.00
2023-03-22T08:09:01.480Z,0.00
2023-03-22T08:11:29.406Z,0.00
2023-03-22T08:13:57.361Z,0.00
2023-03-22T08:16:25.076Z,0.00
2023-03-22T08:18:52.659Z,0.00
2023-03-22T08:21:21.282Z,0.00
2023-03-22T08:23:54.661Z,0.00
2023-03-22T08:26:41.196Z,0.00
2023-03-22T08:29:18.635Z,0.00
2023-03-22T08:31:48.330Z,0.00
2023-03-22T08:34:16.003Z,0.00
2023-03-22T08:36:43.569Z,0.00
2023-03-22T08:39:12.858Z,0.00
2023-03-22T08:41:47.717Z,0.00
2023-03-22T08:44:15.240Z,0.00
2023-03-22T08:46:42.708Z,0.00
2023-03-22T08:49:10.456Z,0.00
2023-03-22T08:51:46.493Z,0.00
2023-03-22T08:54:21.610Z,0.00
2023-03-22T08:57:04.406Z,0.00
2023-03-22T08:59:41.896Z,0.00
2023-03-22T09:02:35.806Z,0.00
2023-03-22T09:05:03.959Z,0.00
2023-03-22T09:07:32.351Z,0.00
2023-03-22T09:10:11.501Z,0.00
2023-03-22T09:12:42.690Z,0.00
2023-03-22T09:15:11.286Z,0.00
2023-03-22T09:17:41.685Z,0.00
2023-03-22T09:20:13.100Z,0.00
2023-03-22T09:22:43.379Z,0.00
2023-03-22T09:25:14.596Z,0.00
2023-03-22T09:27:44.594Z,0.00
2023-03-22T09:30:12.536Z,0.00
2023-03-22T09:32:39.975Z,0.00
2023-03-22T09:35:07.838Z,0.10
2023-03-22T09:37:49.340Z,0.10
2023-03-22T09:40:19.358Z,0.10
2023-03-22T09:42:49.299Z,0.10
2023-03-22T09:45:18.903Z,0.10
2023-03-22T09:47:47.410Z,0.10
2023-03-22T09:50:16.972Z,0.10
2023-03-22T09:52:44.649Z,0.10
2023-03-22T09:55:20.506Z,0.10
2023-03-22T09:57:50.870Z,0.10
2023-03-22T10:00:21.456Z,0.20
2023-03-22T10:02:53.974Z,0.10
2023-03-22T10:05:25.836Z,0.10
2023-03-22T10:08:00.940Z,0.10
2023-03-22T10:10:29.922Z,0.10
2023-03-22T10:13:00.765Z,0.20
2023-03-22T10:15:31.926Z,0.10
2023-03-22T10:18:00.857Z,0.10
2023-03-22T10:20:31.594Z,0.10
2023-03-22T10:23:01.534Z,0.20
2023-03-22T10:25:33.797Z,0.10
2023-03-22T10:28:01.485Z,0.10
2023-03-22T10:30:31.240Z,0.10
2023-03-22T10:33:01.540Z,0.10
2023-03-22T10:35:30.568Z,0.10
2023-03-22T10:37:59.062Z,0.10
2023-03-22T10:40:28.073Z,0.20
2023-03-22T10:43:00.296Z,0.10
2023-03-22T10:45:28.419Z,0.10
2023-03-22T10:47:58.060Z,0.10
2023-03-22T10:50:28.623Z,0.10
2023-03-22T10:52:58.205Z,0.10
2023-03-22T10:55:26.460Z,0.10
2023-03-22T10:57:58.676Z,0.10
2023-03-22T11:00:28.829Z,0.10
2023-03-22T11:02:59.527Z,0.10
2023-03-22T11:05:28.191Z,0.10
2023-03-22T11:07:57.760Z,0.10
2023-03-22T11:10:28.393Z,0.10
2023-03-22T11:12:57.533Z,0.10
2023-03-22T11:15:28.669Z,0.20
2023-03-22T11:18:00.296Z,0.20
2023-03-22T11:20:29.966Z,0.20
2023-03-22T11:23:01.573Z,0.10
2023-03-22T11:25:30.295Z,0.10
2023-03-22T11:27:58.943Z,0.15
2023-03-22T11:30:28.735Z,0.10
2023-03-22T11:33:10.273Z,0.10
2023-03-22T11:35:39.033Z,0.20
2023-03-22T11:38:07.520Z,0.15
2023-03-22T11:40:36.086Z,0.10
2023-03-22T11:43:11.991Z,0.10
2023-03-22T11:45:42.656Z,0.10
2023-03-22T11:48:11.319Z,0.10
2023-03-22T11:50:39.976Z,0.20
2023-03-22T11:53:09.299Z,0.10
2023-03-22T11:55:37.162Z,0.10
2023-03-22T11:58:04.890Z,0.20
2023-03-22T12:00:33.650Z,0.10
2023-03-22T12:03:04.975Z,0.10
2023-03-22T12:05:33.744Z,0.10
2023-03-22T12:08:02.716Z,0.10
2023-03-22T12:10:32.004Z,0.20
2023-03-22T12:13:01.639Z,0.10
2023-03-22T12:15:30.664Z,0.20
2023-03-22T12:18:01.573Z,0.10
2023-03-22T12:20:35.912Z,0.10
2023-03-22T12:23:03.742Z,0.10
2023-03-22T12:25:33.113Z,0.20
2023-03-22T12:28:03.509Z,0.10
2023-03-22T12:30:32.347Z,0.10
2023-03-22T12:33:02.489Z,0.10
2023-03-22T12:35:31.340Z,0.10
2023-03-22T12:38:01.614Z,0.10
2023-03-22T12:40:29.899Z,0.10
2023-03-22T12:43:03.555Z,0.10
2023-03-22T12:45:32.746Z,0.10
2023-03-22T12:48:04.284Z,0.10
2023-03-22T12:50:34.570Z,0.10
2023-03-22T12:53:04.415Z,0.10
2023-03-22T12:55:33.044Z,0.20
2023-03-22T12:58:00.754Z,0.13
2023-03-22T13:00:29.264Z,0.10
2023-03-22T13:02:59.844Z,0.20
2023-03-22T13:05:31.105Z,0.10
2023-03-22T13:08:03.483Z,0.15
2023-03-22T13:10:58.546Z,0.10
2023-03-22T13:13:49.970Z,0.10
2023-03-22T13:16:22.320Z,0.10
2023-03-22T13:19:07.866Z,0.17
2023-03-22T13:21:39.911Z,0.10
2023-03-22T13:24:23.764Z,0.10
2023-03-22T13:26:53.605Z,0.20
2023-03-22T13:29:22.142Z,0.20
2023-03-22T13:31:55.899Z,0.10
2023-03-22T13:34:30.988Z,0.10
2023-03-22T13:36:58.893Z,0.10
2023-03-22T13:39:28.221Z,0.10
2023-03-22T13:42:06.947Z,0.10
2023-03-22T13:44:38.123Z,0.10
2023-03-22T13:47:08.730Z,0.10
2023-03-22T13:49:44.461Z,0.15
2023-03-22T13:52:23.826Z,0.10
2023-03-22T13:54:54.085Z,0.10
2023-03-22T13:57:37.532Z,0.10
2023-03-22T14:00:14.401Z,0.15
2023-03-22T14:02:43.329Z,0.10
2023-03-22T14:05:16.396Z,0.10
2023-03-22T14:07:45.831Z,0.10
2023-03-22T14:10:14.951Z,0.17
2023-03-22T14:12:49.350Z,0.17
2023-03-22T14:15:19.698Z,0.15
2023-03-22T14:17:50.594Z,0.20
2023-03-22T14:20:19.424Z,0.20
